Главная страница
METAR-TAF:

METAR-TAF

Аэропорты :

Абердин, Мэриленд, США

широта: 39-28N, долгота: 076-10W, высота над уровнем моря: 18 м

Текущие метеонаблюдения

Эта сводка был подготовлена 1 час и 13 минут назад, в 13:52 UTC
Штиль
Температура 3°C
Влажность 70%
Давление 1026 hPa
Видимость: 16.1 км
Рассеянная облачность на высоте 20000 фута

METAR: KAPG 151352Z 00000KT 10SM BKN200 03/M02 A3030 RMK SLP264

Время: 10:05 (15:05 UTC)


TAF: отсутствует

Метеонаблюдения и прогнозы для более 4000 аэропортов (сводки METAR и TAF).

Имеющиеся станции представлены на карте желтыми и красными точками.

Чтобы увидеть название станции, наведите на нее мышь.

Затем щелкните, чтобы увидеть метеонаблюдения и метеопрогнозы.

Управление картой: чтобы увеличить масштаб, щелкните зеленые кнопки с черным крестиком; чтобы уменьшить масштаб, щелкните зеленую кнопку с тире; для просмотра соседних карт щелкайте зеленые стрелки.


METAR-TAF: